createdAt,value
2023-05-03T00:01:35.291Z,8
2023-05-03T00:04:07.439Z,5
2023-05-03T00:06:38.467Z,4
2023-05-03T00:09:09.813Z,4
2023-05-03T00:11:40.652Z,8
2023-05-03T00:14:11.670Z,6
2023-05-03T00:16:40.875Z,4
2023-05-03T00:19:20.859Z,4
2023-05-03T00:21:43.547Z,4
2023-05-03T00:24:15.350Z,4
2023-05-03T00:26:46.687Z,4
2023-05-03T00:29:17.752Z,8
2023-05-03T00:31:48.278Z,4
2023-05-03T00:34:19.543Z,4
2023-05-03T00:36:50.758Z,4
2023-05-03T00:39:21.848Z,8
2023-05-03T00:41:52.935Z,4
2023-05-03T00:44:23.909Z,4
2023-05-03T00:46:54.860Z,4
2023-05-03T00:49:26.137Z,4
2023-05-03T00:51:57.798Z,4
2023-05-03T00:54:32.110Z,4
2023-05-03T00:57:02.839Z,4
2023-05-03T00:59:33.815Z,4
2023-05-03T01:02:04.758Z,4
2023-05-03T01:04:34.859Z,4
2023-05-03T01:07:05.918Z,4
2023-05-03T01:09:36.983Z,4
2023-05-03T01:12:07.546Z,4
2023-05-03T01:14:38.510Z,4
2023-05-03T01:17:09.400Z,4
2023-05-03T01:19:40.227Z,4
2023-05-03T01:22:10.732Z,4
2023-05-03T01:24:41.457Z,4
2023-05-03T01:27:12.057Z,4
2023-05-03T01:29:42.925Z,4
2023-05-03T01:32:13.727Z,4
2023-05-03T01:34:45.272Z,4
2023-05-03T01:37:16.422Z,4
2023-05-03T01:39:47.357Z,4
2023-05-03T01:42:17.906Z,4
2023-05-03T01:44:48.829Z,8
2023-05-03T01:47:19.027Z,8
2023-05-03T01:49:49.124Z,8
2023-05-03T01:52:20.560Z,4
2023-05-03T01:54:51.544Z,4
2023-05-03T01:57:22.567Z,4
2023-05-03T01:59:53.217Z,4
2023-05-03T02:02:24.390Z,4
2023-05-03T02:04:55.512Z,4
2023-05-03T02:07:26.473Z,4
2023-05-03T02:09:57.712Z,4
2023-05-03T02:12:28.144Z,4
2023-05-03T02:14:59.196Z,8
2023-05-03T02:17:30.260Z,4
2023-05-03T02:20:01.652Z,4
2023-05-03T02:22:32.073Z,4
2023-05-03T02:25:02.834Z,4
2023-05-03T02:27:33.911Z,4
2023-05-03T02:30:05.696Z,4
2023-05-03T02:32:36.360Z,4
2023-05-03T02:35:07.424Z,4
2023-05-03T02:37:37.893Z,4
2023-05-03T02:40:08.600Z,4
2023-05-03T02:42:39.198Z,4
2023-05-03T02:45:10.109Z,4
2023-05-03T02:47:40.918Z,4
2023-05-03T02:50:12.423Z,4
2023-05-03T02:52:43.826Z,4
2023-05-03T02:55:14.596Z,4
2023-05-03T02:57:45.299Z,4
2023-05-03T03:00:16.149Z,4
2023-05-03T03:02:46.831Z,4
2023-05-03T03:05:16.058Z,5
2023-05-03T03:07:46.853Z,4
2023-05-03T03:10:17.715Z,4
2023-05-03T03:12:48.642Z,7
2023-05-03T03:15:19.918Z,8
2023-05-03T03:17:50.435Z,4
2023-05-03T03:20:21.693Z,4
2023-05-03T03:22:51.990Z,4
2023-05-03T03:25:23.208Z,4
2023-05-03T03:27:54.333Z,4
2023-05-03T03:30:26.344Z,4
2023-05-03T03:32:57.628Z,8
2023-05-03T03:35:28.366Z,4
2023-05-03T03:37:58.539Z,4
2023-05-03T03:40:29.361Z,8
2023-05-03T03:43:00.129Z,4
2023-05-03T03:45:31.049Z,8
2023-05-03T03:48:01.920Z,4
2023-05-03T03:50:33.582Z,4
2023-05-03T03:53:04.077Z,4
2023-05-03T03:55:35.032Z,8
2023-05-03T03:58:06.140Z,4
2023-05-03T04:00:37.413Z,4
2023-05-03T04:03:08.763Z,8
2023-05-03T04:05:39.824Z,4
2023-05-03T04:08:10.957Z,8
2023-05-03T04:10:41.210Z,8
2023-05-03T04:13:10.124Z,4
2023-05-03T04:15:40.204Z,4
2023-05-03T04:18:11.082Z,8
2023-05-03T04:20:42.166Z,8
2023-05-03T04:23:16.001Z,4
2023-05-03T04:25:46.673Z,4
2023-05-03T04:28:17.067Z,5
2023-05-03T04:30:48.068Z,4
2023-05-03T04:33:18.995Z,4
2023-05-03T04:35:49.748Z,4
2023-05-03T04:38:20.117Z,4
2023-05-03T04:40:50.898Z,6
2023-05-03T04:43:21.332Z,6
2023-05-03T04:45:52.098Z,8
2023-05-03T04:48:22.393Z,8
2023-05-03T04:50:53.522Z,6
2023-05-03T04:53:24.809Z,6
2023-05-03T04:55:55.678Z,12
2023-05-03T04:58:26.264Z,11
2023-05-03T05:00:56.621Z,7
2023-05-03T05:03:27.709Z,16
2023-05-03T05:05:59.130Z,24
2023-05-03T05:08:30.276Z,8
2023-05-03T05:11:01.641Z,8
2023-05-03T05:13:33.185Z,12
2023-05-03T05:16:04.563Z,10
2023-05-03T05:18:35.937Z,8
2023-05-03T05:21:06.972Z,8
2023-05-03T05:23:37.961Z,9
2023-05-03T05:26:08.214Z,8
2023-05-03T05:28:38.452Z,9
2023-05-03T05:31:08.684Z,8
2023-05-03T05:33:39.077Z,11
2023-05-03T05:36:09.825Z,10
2023-05-03T05:38:40.670Z,9
2023-05-03T05:41:10.747Z,8
2023-05-03T05:43:41.602Z,8
2023-05-03T05:46:12.271Z,11
2023-05-03T05:48:44.118Z,9
2023-05-03T05:51:14.015Z,12
2023-05-03T05:53:44.751Z,12
2023-05-03T05:56:19.050Z,8
2023-05-03T05:58:50.816Z,12
2023-05-03T06:01:21.554Z,12
2023-05-03T06:03:51.882Z,12
2023-05-03T06:06:22.941Z,10
2023-05-03T06:08:51.624Z,9
2023-05-03T06:11:22.427Z,8
2023-05-03T06:13:53.015Z,12
2023-05-03T06:16:24.441Z,8
2023-05-03T06:18:55.637Z,12
2023-05-03T06:21:26.429Z,8
2023-05-03T06:23:57.392Z,8
2023-05-03T06:26:28.150Z,8
2023-05-03T06:28:58.952Z,8
2023-05-03T06:31:28.123Z,8
2023-05-03T06:33:58.965Z,10
2023-05-03T06:36:30.200Z,10
2023-05-03T06:39:00.861Z,8
2023-05-03T06:41:31.766Z,8
2023-05-03T06:44:02.743Z,8
2023-05-03T06:46:33.204Z,8
2023-05-03T06:49:04.479Z,16
2023-05-03T06:51:34.921Z,11
2023-05-03T06:54:05.656Z,12
2023-05-03T06:56:35.657Z,12
2023-05-03T06:59:06.244Z,12
2023-05-03T07:01:36.948Z,8
2023-05-03T07:04:07.002Z,8
2023-05-03T07:06:44.585Z,8
2023-05-03T07:09:08.015Z,8
2023-05-03T07:11:38.427Z,12
2023-05-03T07:14:09.418Z,11
2023-05-03T07:16:40.009Z,8
2023-05-03T07:19:10.150Z,9
2023-05-03T07:21:40.868Z,8
2023-05-03T07:24:11.253Z,10
2023-05-03T07:26:44.247Z,10
2023-05-03T07:29:13.033Z,8
2023-05-03T07:31:43.873Z,11
2023-05-03T07:34:18.485Z,8
2023-05-03T07:36:49.422Z,12
2023-05-03T07:39:19.674Z,8
2023-05-03T07:41:50.327Z,8
2023-05-03T07:44:19.085Z,11
2023-05-03T07:46:49.768Z,7
2023-05-03T07:49:21.079Z,12
2023-05-03T07:51:51.928Z,8
2023-05-03T07:54:25.025Z,8
2023-05-03T07:56:55.747Z,8
2023-05-03T07:59:25.456Z,8
2023-05-03T08:01:56.106Z,12
2023-05-03T08:04:36.523Z,8
2023-05-03T08:07:07.563Z,8
2023-05-03T08:09:41.297Z,8
2023-05-03T08:12:11.756Z,4
2023-05-03T08:14:42.196Z,8
2023-05-03T08:17:13.872Z,8
2023-05-03T08:19:44.548Z,12
2023-05-03T08:22:15.831Z,11
2023-05-03T08:24:46.286Z,9
2023-05-03T08:27:16.756Z,8
2023-05-03T08:29:52.738Z,8
2023-05-03T08:32:23.588Z,8
2023-05-03T08:34:54.432Z,8
2023-05-03T08:37:24.896Z,13
2023-05-03T08:40:00.583Z,8
2023-05-03T08:42:31.647Z,12
2023-05-03T08:45:02.385Z,8
2023-05-03T08:47:37.113Z,11
2023-05-03T08:50:11.771Z,8
2023-05-03T08:52:42.285Z,8
2023-05-03T08:55:13.443Z,8
2023-05-03T08:57:45.407Z,12
2023-05-03T09:00:16.138Z,8
2023-05-03T09:02:46.765Z,11
2023-05-03T09:05:17.595Z,11
2023-05-03T09:07:48.514Z,8
2023-05-03T09:10:18.999Z,12
2023-05-03T09:12:49.721Z,71
2023-05-03T09:15:20.502Z,33
2023-05-03T09:17:50.529Z,46
2023-05-03T09:20:24.428Z,82
2023-05-03T09:22:55.194Z,20
2023-05-03T09:25:29.689Z,32
2023-05-03T09:28:00.163Z,12
2023-05-03T09:30:32.287Z,15
2023-05-03T09:33:05.358Z,36
2023-05-03T09:35:35.813Z,13
2023-05-03T09:38:06.490Z,97
2023-05-03T09:40:37.519Z,52
2023-05-03T09:43:08.923Z,16
2023-05-03T09:45:43.337Z,24
2023-05-03T09:48:14.550Z,20
2023-05-03T09:50:51.086Z,22
2023-05-03T09:53:22.166Z,26
2023-05-03T09:55:57.597Z,20
2023-05-03T09:58:28.370Z,16
2023-05-03T10:00:57.122Z,16
2023-05-03T10:03:27.909Z,24
2023-05-03T10:05:58.348Z,20
2023-05-03T10:08:32.967Z,20
2023-05-03T10:11:07.043Z,20
2023-05-03T10:13:37.688Z,21
2023-05-03T10:16:08.106Z,16
2023-05-03T10:18:42.551Z,16
2023-05-03T10:21:18.323Z,16
2023-05-03T10:23:51.168Z,16
2023-05-03T10:26:21.605Z,17
2023-05-03T10:28:52.079Z,19
2023-05-03T10:31:22.423Z,16
2023-05-03T10:33:57.082Z,18
2023-05-03T10:36:42.200Z,12
2023-05-03T10:39:01.635Z,12
2023-05-03T10:41:32.162Z,12
2023-05-03T10:44:03.051Z,14
2023-05-03T10:46:33.385Z,15
2023-05-03T10:49:04.006Z,13
2023-05-03T10:51:36.077Z,14
2023-05-03T10:54:15.425Z,12
2023-05-03T10:56:45.996Z,12
2023-05-03T10:59:17.422Z,12
2023-05-03T11:01:49.153Z,28
2023-05-03T11:04:20.063Z,12
2023-05-03T11:06:51.314Z,38
2023-05-03T11:09:24.277Z,16
2023-05-03T11:11:54.489Z,12
2023-05-03T11:14:24.501Z,13
2023-05-03T11:16:56.196Z,18
2023-05-03T11:19:26.614Z,15
2023-05-03T11:21:57.113Z,23
2023-05-03T11:24:27.272Z,18
2023-05-03T11:26:58.404Z,12
2023-05-03T11:29:28.979Z,13
2023-05-03T11:31:59.724Z,16
2023-05-03T11:34:30.498Z,16
2023-05-03T11:37:02.380Z,16
2023-05-03T11:39:32.793Z,16
2023-05-03T11:42:03.598Z,17
2023-05-03T11:44:33.616Z,16
2023-05-03T11:47:15.370Z,12
2023-05-03T11:49:45.736Z,14
2023-05-03T11:52:16.092Z,13
2023-05-03T11:54:50.674Z,12
2023-05-03T11:57:21.217Z,12
2023-05-03T11:59:52.464Z,12
2023-05-03T12:02:23.638Z,16
2023-05-03T12:04:54.726Z,9
2023-05-03T12:07:26.298Z,12
2023-05-03T12:10:13.360Z,15
2023-05-03T12:12:33.549Z,8
2023-05-03T12:15:03.458Z,12
2023-05-03T12:17:33.077Z,12
2023-05-03T12:22:33.878Z,10
2023-05-03T12:25:09.615Z,12
2023-05-03T12:27:40.716Z,12
2023-05-03T12:30:09.898Z,12
2023-05-03T12:32:40.310Z,12
2023-05-03T12:35:19.616Z,12
2023-05-03T12:37:49.349Z,12
2023-05-03T12:40:32.180Z,8
2023-05-03T12:42:50.408Z,12
2023-05-03T12:45:21.776Z,12
2023-05-03T12:47:55.461Z,8
2023-05-03T12:50:29.567Z,16
2023-05-03T12:53:02.495Z,12
2023-05-03T13:01:24.671Z,16
2023-05-03T13:03:22.803Z,13
2023-05-03T13:05:53.069Z,12
2023-05-03T13:08:31.118Z,14
2023-05-03T13:10:55.410Z,12
2023-05-03T13:13:25.745Z,13
2023-05-03T13:16:00.337Z,12
2023-05-03T13:18:31.936Z,12
2023-05-03T13:21:04.417Z,12
2023-05-03T13:23:34.594Z,8
2023-05-03T13:26:05.391Z,12
2023-05-03T13:28:35.848Z,8
2023-05-03T13:31:06.269Z,9
2023-05-03T13:33:36.387Z,9
2023-05-03T13:36:07.981Z,8
2023-05-03T13:38:41.270Z,8
2023-05-03T13:41:14.765Z,8
2023-05-03T13:43:47.390Z,8
2023-05-03T13:46:21.060Z,9
2023-05-03T13:48:52.085Z,8
2023-05-03T13:51:23.708Z,8
2023-05-03T13:53:54.087Z,8
2023-05-03T13:56:24.761Z,17
2023-05-03T13:59:02.031Z,15
2023-05-03T14:01:32.370Z,16
2023-05-03T14:04:03.626Z,8
2023-05-03T14:06:34.406Z,8
2023-05-03T14:09:07.224Z,9
2023-05-03T14:11:37.341Z,11
2023-05-03T14:14:08.615Z,12
2023-05-03T14:16:41.202Z,9
2023-05-03T14:19:09.665Z,12
2023-05-03T14:21:42.916Z,9
2023-05-03T14:24:18.868Z,8
2023-05-03T14:26:49.806Z,12
2023-05-03T14:29:21.106Z,8
2023-05-03T14:31:55.075Z,8
2023-05-03T14:34:26.368Z,12
2023-05-03T14:36:56.483Z,12
2023-05-03T14:39:27.029Z,8
2023-05-03T14:41:57.149Z,11
2023-05-03T14:44:33.189Z,8
2023-05-03T14:47:03.868Z,12
2023-05-03T14:49:35.453Z,12
2023-05-03T14:52:07.130Z,16
2023-05-03T14:54:37.435Z,12
2023-05-03T14:57:08.286Z,9
2023-05-03T14:59:40.950Z,8
2023-05-03T15:02:11.448Z,9
2023-05-03T15:04:43.678Z,8
2023-05-03T15:07:14.160Z,8
2023-05-03T15:09:45.740Z,12
2023-05-03T15:12:16.330Z,8
2023-05-03T15:14:50.379Z,12
2023-05-03T15:17:20.746Z,9
2023-05-03T15:19:52.521Z,9
2023-05-03T15:22:25.819Z,9
2023-05-03T15:24:57.976Z,8
2023-05-03T15:27:28.517Z,8
2023-05-03T15:30:10.073Z,8
2023-05-03T15:32:45.132Z,8
2023-05-03T15:35:15.666Z,9
2023-05-03T15:37:50.704Z,12
2023-05-03T15:40:23.104Z,8
2023-05-03T15:42:52.036Z,23
2023-05-03T15:45:22.642Z,20
2023-05-03T15:47:53.272Z,20
2023-05-03T15:50:23.775Z,13
2023-05-03T15:52:54.175Z,16
2023-05-03T15:55:25.003Z,16
2023-05-03T15:57:57.396Z,12
2023-05-03T16:00:27.724Z,16
2023-05-03T16:03:01.266Z,12
2023-05-03T16:05:32.133Z,12
2023-05-03T16:08:02.500Z,15
2023-05-03T16:10:32.962Z,11
2023-05-03T16:13:03.861Z,16
2023-05-03T16:15:36.179Z,20
2023-05-03T16:18:07.538Z,16
2023-05-03T16:20:45.303Z,18
2023-05-03T16:23:17.489Z,12
2023-05-03T16:25:48.452Z,14
2023-05-03T16:28:19.917Z,14
2023-05-03T16:30:51.702Z,12
2023-05-03T16:33:22.611Z,12
2023-05-03T16:35:52.841Z,13
2023-05-03T16:38:27.008Z,16
2023-05-03T16:40:57.391Z,23
2023-05-03T16:43:29.524Z,18
2023-05-03T16:45:59.673Z,15
2023-05-03T16:48:42.113Z,12
2023-05-03T16:51:12.597Z,16
2023-05-03T16:53:47.326Z,16
2023-05-03T16:56:18.392Z,16
2023-05-03T16:58:50.512Z,14
2023-05-03T17:01:26.575Z,12
2023-05-03T17:04:03.513Z,20
2023-05-03T17:06:34.662Z,14
2023-05-03T17:09:07.212Z,12
2023-05-03T17:11:37.824Z,24
2023-05-03T17:14:10.078Z,18
2023-05-03T17:16:40.735Z,20
2023-05-03T17:19:11.208Z,24
2023-05-03T17:21:46.573Z,18
2023-05-03T17:24:21.584Z,16
2023-05-03T17:26:52.206Z,20
2023-05-03T17:29:23.568Z,20
2023-05-03T17:31:54.444Z,16
2023-05-03T17:34:24.547Z,19
2023-05-03T17:36:57.868Z,16
2023-05-03T17:39:31.078Z,20
2023-05-03T17:42:10.413Z,16
2023-05-03T17:44:41.100Z,17
2023-05-03T17:47:11.672Z,16
2023-05-03T17:49:43.631Z,16
2023-05-03T17:52:13.918Z,16
2023-05-03T17:54:46.554Z,16
2023-05-03T17:57:18.440Z,16
2023-05-03T17:59:49.245Z,30
2023-05-03T18:02:19.619Z,48
2023-05-03T18:04:51.716Z,20
2023-05-03T18:07:24.668Z,28
2023-05-03T18:09:54.991Z,24
2023-05-03T18:12:34.201Z,24
2023-05-03T18:15:06.387Z,24
2023-05-03T18:17:38.509Z,20
2023-05-03T18:20:08.573Z,26
2023-05-03T18:22:41.057Z,42
2023-05-03T18:25:12.745Z,37
2023-05-03T18:27:45.946Z,39
2023-05-03T18:30:17.753Z,44
2023-05-03T18:32:57.099Z,48
2023-05-03T18:35:28.954Z,48
2023-05-03T18:37:59.473Z,41
2023-05-03T18:40:29.720Z,43
2023-05-03T18:43:00.980Z,44
2023-05-03T18:45:30.980Z,40
2023-05-03T18:48:01.248Z,43
2023-05-03T18:50:32.145Z,40
2023-05-03T18:53:03.289Z,41
2023-05-03T18:55:38.829Z,42
2023-05-03T18:58:09.686Z,40
2023-05-03T19:00:44.641Z,40
2023-05-03T19:03:15.349Z,38
2023-05-03T19:05:46.856Z,38
2023-05-03T19:08:17.970Z,40
2023-05-03T19:10:52.026Z,40
2023-05-03T19:13:22.304Z,40
2023-05-03T19:15:53.205Z,41
2023-05-03T19:18:29.233Z,40
2023-05-03T19:21:01.177Z,40
2023-05-03T19:23:32.723Z,44
2023-05-03T19:26:02.858Z,40
2023-05-03T19:28:32.895Z,43
2023-05-03T19:31:09.125Z,44
2023-05-03T19:33:44.788Z,40
2023-05-03T19:36:22.276Z,44
2023-05-03T19:38:52.847Z,46
2023-05-03T19:41:23.753Z,40
2023-05-03T19:43:54.046Z,40
2023-05-03T19:46:25.053Z,37
2023-05-03T19:48:58.914Z,40
2023-05-03T19:51:37.786Z,40
2023-05-03T19:54:08.626Z,36
2023-05-03T19:56:39.390Z,32
2023-05-03T19:59:10.272Z,28
2023-05-03T20:01:41.249Z,28
2023-05-03T20:04:17.549Z,32
2023-05-03T20:06:47.787Z,39
2023-05-03T20:09:18.551Z,44
2023-05-03T20:11:53.952Z,43
2023-05-03T20:14:31.645Z,40
2023-05-03T20:17:03.276Z,42
2023-05-03T20:19:32.357Z,44
2023-05-03T20:22:02.969Z,44
2023-05-03T20:24:35.853Z,40
2023-05-03T20:27:05.962Z,44
2023-05-03T20:29:40.354Z,44
2023-05-03T20:32:19.145Z,42
2023-05-03T20:34:52.359Z,42
2023-05-03T20:37:24.829Z,40
2023-05-03T20:39:58.859Z,40
2023-05-03T20:42:33.665Z,40
2023-05-03T20:45:04.888Z,36
2023-05-03T20:47:35.695Z,32
2023-05-03T20:50:08.097Z,32
2023-05-03T20:52:45.291Z,27
2023-05-03T20:55:23.135Z,28
2023-05-03T20:57:58.534Z,51
2023-05-03T21:00:29.507Z,52
2023-05-03T21:03:01.573Z,45
2023-05-03T21:05:31.448Z,50
2023-05-03T21:08:02.461Z,48
2023-05-03T21:10:33.688Z,46
2023-05-03T21:13:04.584Z,44
2023-05-03T21:15:38.003Z,40
2023-05-03T21:18:07.741Z,36
2023-05-03T21:20:41.517Z,37
2023-05-03T21:23:15.920Z,32
2023-05-03T21:25:48.312Z,36
2023-05-03T21:28:20.619Z,33
2023-05-03T21:30:50.549Z,34
2023-05-03T21:33:28.260Z,43
2023-05-03T21:36:00.123Z,48
2023-05-03T21:38:33.544Z,51
2023-05-03T21:41:05.164Z,41
2023-05-03T21:43:38.748Z,32
2023-05-03T21:46:18.845Z,36
2023-05-03T21:48:58.365Z,33
2023-05-03T21:51:27.000Z,32
2023-05-03T21:53:57.136Z,46
2023-05-03T21:56:28.060Z,49
2023-05-03T21:59:00.313Z,49
2023-05-03T22:01:32.706Z,51
2023-05-03T22:04:08.245Z,44
2023-05-03T22:06:38.701Z,44
2023-05-03T22:09:08.800Z,44
2023-05-03T22:11:47.025Z,40
2023-05-03T22:14:18.263Z,41
2023-05-03T22:16:48.729Z,36
2023-05-03T22:19:30.871Z,40
2023-05-03T22:22:05.147Z,37
2023-05-03T22:24:35.452Z,35
2023-05-03T22:27:15.090Z,33
2023-05-03T22:29:45.244Z,39
2023-05-03T22:32:19.916Z,39
2023-05-03T22:34:50.870Z,34
2023-05-03T22:37:22.094Z,34
2023-05-03T22:39:52.179Z,34
2023-05-03T22:42:31.677Z,32
2023-05-03T22:45:07.273Z,36
2023-05-03T22:47:37.757Z,40
2023-05-03T22:50:09.537Z,40
2023-05-03T22:52:49.990Z,40
2023-05-03T22:55:20.058Z,36
2023-05-03T22:57:57.616Z,37
2023-05-03T23:00:29.685Z,38
2023-05-03T23:03:00.157Z,40
2023-05-03T23:05:32.020Z,36
2023-05-03T23:08:00.943Z,37
2023-05-03T23:10:34.935Z,34
2023-05-03T23:13:09.636Z,30
2023-05-03T23:15:45.367Z,32
2023-05-03T23:18:20.085Z,32
2023-05-03T23:20:54.075Z,32
2023-05-03T23:23:25.534Z,28
2023-05-03T23:26:04.100Z,32
2023-05-03T23:28:34.744Z,32
2023-05-03T23:31:07.732Z,30
2023-05-03T23:33:39.621Z,20
2023-05-03T23:36:15.452Z,31
2023-05-03T23:38:46.218Z,32
2023-05-03T23:41:17.719Z,32
2023-05-03T23:43:48.412Z,32
2023-05-03T23:46:20.311Z,28
2023-05-03T23:48:56.631Z,32
2023-05-03T23:51:28.914Z,32
2023-05-03T23:54:04.280Z,33
2023-05-03T23:56:37.553Z,28
2023-05-03T23:59:10.988Z,28
